Wilsonia, California
Current Conditions -  °F | °C
As of 3:56 AM on Monday 20 Oct 2014 (Local Time) from KBIH Reporting Station
Clear Clear  
Wind Chill: 43°   Ceiling: Unl
Heat Index: 45°   Visibility: 10mi
Dew Point: 30°   Wind: 5mph
Humidity: 56%   Direction: 330°NNW
Pressure: 29.95"   Gusts: NA
Location:  36.7872°N, 118.66°W
Report Text: KBIH 201056Z AUTO 33004KT 10SM CLR 07/M01 A2995 RMK AO2 SLP106 T00721011
Loading
Personal Weather Stations






























Interactive Weather Map
Tropical Storm Tracking
New forecast layout! Learn more

10-Day Weather Forecast

Advertisements
Track Severe Weather on mobile